Lawrence Municipal Airport Lawrence US
ICAO: KLWM
IATA: LWM
Category: Medium
Scheduled Services: No

Elevation: 148 ft
TransAlt. 18000 ft.

Airport Communications:
BOSTON APP/DEP:124.4
ASOS:126.75
ATIS:126.75
CLNC DEL:124.3
CTAF:119.25
GND:124.3
BRIDGEPORT RDO:112.5
TWR:119.25
UNICOM:122.8

KLWM Zoom In..

Runways:

(A) RW 05 length 5001 ft width 150 ft
ILS 111.70 / hdg 53

(B) RW 14 length 3900 ft width 100 ft
---- / hdg 137

(C) RW 23 length 5001 ft width 150 ft
---- / hdg 233

(D) RW 32 length 3900 ft width 100 ft
---- / hdg 317

Location; KLWM
Day. 23 / Time. 21.54 Zulu
* Altimeter: 29.84
* Temperature: 29° c. 84.2°f.
* Wind from: 320° Speed 11 kn with Gusts up to 19 kn.
Dewpoint: 08° c.
Visibility: 10 Statute Miles.
Clouds: Broken 11000 ft.

KLWM 232154Z 32011G19KT 10SM BKN110 29/08 A2984 RMK AO2 SLP103 T02890083


Wind From 320°
Speed 11 kn.

 
 
jpsmedia.com for Web Design SOUNDCLOUD worldairports.se 2018   terms of use